createdAt,value
2023-01-29T00:01:37.131Z,61.08
2023-01-29T00:04:05.895Z,60.74
2023-01-29T00:06:35.331Z,60.65
2023-01-29T00:09:04.064Z,61.20
2023-01-29T00:11:32.346Z,60.59
2023-01-29T00:14:00.614Z,60.12
2023-01-29T00:16:28.795Z,59.43
2023-01-29T00:18:57.050Z,60.44
2023-01-29T00:21:27.663Z,61.01
2023-01-29T00:23:57.726Z,61.19
2023-01-29T00:26:26.341Z,60.50
2023-01-29T00:28:56.928Z,61.12
2023-01-29T00:31:25.998Z,61.47
2023-01-29T00:33:54.545Z,61.14
2023-01-29T00:36:23.104Z,61.03
2023-01-29T00:38:58.495Z,60.85
2023-01-29T00:41:54.023Z,61.00
2023-01-29T00:44:40.999Z,60.39
2023-01-29T00:47:29.897Z,60.93
2023-01-29T00:49:58.746Z,61.90
2023-01-29T00:52:26.991Z,62.46
2023-01-29T00:54:58.772Z,62.62
2023-01-29T00:57:28.138Z,62.36
2023-01-29T00:59:56.551Z,62.47
2023-01-29T01:02:42.701Z,63.00
2023-01-29T01:05:18.068Z,63.04
2023-01-29T01:07:47.100Z,63.41
2023-01-29T01:10:21.169Z,63.09
2023-01-29T01:12:50.652Z,62.93
2023-01-29T01:15:19.522Z,62.38
2023-01-29T01:17:48.769Z,62.68
2023-01-29T01:20:17.487Z,62.83
2023-01-29T01:22:45.688Z,62.79
2023-01-29T01:25:13.999Z,63.09
2023-01-29T01:27:43.375Z,63.03
2023-01-29T01:30:14.114Z,62.61
2023-01-29T01:32:43.382Z,62.82
2023-01-29T01:35:13.658Z,62.12
2023-01-29T01:37:42.185Z,62.57
2023-01-29T01:40:18.399Z,61.47
2023-01-29T01:42:50.346Z,61.85
2023-01-29T01:45:24.269Z,61.52
2023-01-29T01:47:56.625Z,61.77
2023-01-29T01:50:28.324Z,61.74
2023-01-29T01:53:00.101Z,62.08
2023-01-29T01:55:29.416Z,62.08
2023-01-29T01:58:04.551Z,62.04
2023-01-29T02:00:32.866Z,61.58
2023-01-29T02:03:19.424Z,62.29
2023-01-29T02:06:08.069Z,62.13
2023-01-29T02:08:57.662Z,61.17
2023-01-29T02:11:26.529Z,60.55
2023-01-29T02:13:55.873Z,60.24
2023-01-29T02:16:27.183Z,59.13
2023-01-29T02:18:56.747Z,59.46
2023-01-29T02:21:49.829Z,60.15
2023-01-29T02:24:46.148Z,60.76
2023-01-29T02:27:16.532Z,61.50
2023-01-29T02:29:54.274Z,62.13
2023-01-29T02:32:27.547Z,62.09
2023-01-29T02:35:22.028Z,62.52
2023-01-29T02:37:55.904Z,63.02
2023-01-29T02:40:30.683Z,63.64
2023-01-29T02:43:05.604Z,64.08
2023-01-29T02:45:40.460Z,63.70
2023-01-29T02:48:09.663Z,64.13
2023-01-29T02:50:43.650Z,64.29
2023-01-29T02:53:16.037Z,63.84
2023-01-29T02:55:47.318Z,62.81
2023-01-29T02:58:21.529Z,62.41
2023-01-29T03:00:52.595Z,62.61
2023-01-29T03:03:24.557Z,61.46
2023-01-29T03:05:55.920Z,61.06
2023-01-29T03:08:36.945Z,61.46
2023-01-29T03:11:06.999Z,62.19
2023-01-29T03:13:42.654Z,63.31
2023-01-29T03:16:16.315Z,63.48
2023-01-29T03:18:51.190Z,64.78
2023-01-29T03:21:41.095Z,65.07
2023-01-29T03:24:32.266Z,64.67
2023-01-29T03:27:21.204Z,64.71
2023-01-29T03:30:08.895Z,64.21
2023-01-29T03:32:52.307Z,63.74
2023-01-29T03:35:36.613Z,63.59
2023-01-29T03:38:07.348Z,63.61
2023-01-29T03:40:39.954Z,63.66
2023-01-29T03:43:11.797Z,63.95
2023-01-29T03:45:44.380Z,64.29
2023-01-29T03:48:17.867Z,64.52
2023-01-29T03:50:53.863Z,64.67
2023-01-29T03:53:25.200Z,64.71
2023-01-29T03:55:59.641Z,64.52
2023-01-29T03:58:33.604Z,64.55
2023-01-29T04:01:04.108Z,64.73
2023-01-29T04:03:35.742Z,65.06
2023-01-29T04:06:10.677Z,65.46
2023-01-29T04:09:02.885Z,65.52
2023-01-29T04:11:32.326Z,65.56
2023-01-29T04:14:01.382Z,65.71
2023-01-29T04:16:33.202Z,65.99
2023-01-29T04:19:32.070Z,66.20
2023-01-29T04:22:05.344Z,66.58
2023-01-29T04:24:33.865Z,67.09
2023-01-29T04:27:10.679Z,66.19
2023-01-29T04:29:53.078Z,67.07
2023-01-29T04:32:27.358Z,66.87
2023-01-29T04:35:02.198Z,66.63
2023-01-29T04:37:37.833Z,66.65
2023-01-29T04:40:16.166Z,66.95
2023-01-29T04:42:49.311Z,66.86
2023-01-29T04:45:21.653Z,66.41
2023-01-29T04:47:52.666Z,66.45
2023-01-29T04:50:26.497Z,66.00
2023-01-29T04:53:00.416Z,66.09
2023-01-29T04:55:33.934Z,66.60
2023-01-29T04:58:06.553Z,66.53
2023-01-29T05:00:36.925Z,66.58
2023-01-29T05:03:06.151Z,66.91
2023-01-29T05:05:35.556Z,67.21
2023-01-29T05:08:04.341Z,67.68
2023-01-29T05:10:32.464Z,67.62
2023-01-29T05:13:02.591Z,67.38
2023-01-29T05:15:34.788Z,67.51
2023-01-29T05:18:04.199Z,68.18
2023-01-29T05:20:34.722Z,68.68
2023-01-29T05:23:03.100Z,68.96
2023-01-29T05:25:32.988Z,68.39
2023-01-29T05:28:06.915Z,68.71
2023-01-29T05:30:36.729Z,68.07
2023-01-29T05:33:05.927Z,67.18
2023-01-29T05:35:35.222Z,66.77
2023-01-29T05:38:03.724Z,66.86
2023-01-29T05:40:31.810Z,67.19
2023-01-29T05:43:00.181Z,67.44
2023-01-29T05:45:28.155Z,67.38
2023-01-29T05:47:57.783Z,67.05
2023-01-29T05:50:26.147Z,67.05
2023-01-29T05:52:58.985Z,67.14
2023-01-29T05:55:27.451Z,66.83
2023-01-29T05:57:55.841Z,67.34
2023-01-29T06:00:23.994Z,66.58
2023-01-29T06:02:52.290Z,67.51
2023-01-29T06:05:20.381Z,67.64
2023-01-29T06:07:48.641Z,67.98
2023-01-29T06:10:19.372Z,67.47
2023-01-29T06:12:47.857Z,67.43
2023-01-29T06:15:16.348Z,67.06
2023-01-29T06:17:44.582Z,66.78
2023-01-29T06:20:13.227Z,67.05
2023-01-29T06:22:41.516Z,66.63
2023-01-29T06:25:10.426Z,66.98
2023-01-29T06:27:40.025Z,67.00
2023-01-29T06:30:09.343Z,66.78
2023-01-29T06:32:37.602Z,66.82
2023-01-29T06:35:06.444Z,66.66
2023-01-29T06:37:34.657Z,66.49
2023-01-29T06:40:02.781Z,66.72
2023-01-29T06:42:31.054Z,66.48
2023-01-29T06:45:00.380Z,66.49
2023-01-29T06:47:28.743Z,66.83
2023-01-29T06:49:56.832Z,67.44
2023-01-29T06:52:28.812Z,67.85
2023-01-29T06:54:57.421Z,68.52
2023-01-29T06:57:25.648Z,67.55
2023-01-29T06:59:53.590Z,67.79
2023-01-29T07:02:23.195Z,68.10
2023-01-29T07:04:51.215Z,67.50
2023-01-29T07:07:19.451Z,67.50
2023-01-29T07:09:47.467Z,67.34
2023-01-29T07:12:15.684Z,67.39
2023-01-29T07:14:43.692Z,67.62
2023-01-29T07:17:11.876Z,67.47
2023-01-29T07:19:41.183Z,67.12
2023-01-29T07:22:09.467Z,67.50
2023-01-29T07:24:37.458Z,67.72
2023-01-29T07:27:05.700Z,67.98
2023-01-29T07:29:33.684Z,68.11
2023-01-29T07:32:02.014Z,67.83
2023-01-29T07:34:30.047Z,67.79
2023-01-29T07:36:59.640Z,67.70
2023-01-29T07:39:27.583Z,67.71
2023-01-29T07:41:55.808Z,67.73
2023-01-29T07:44:24.434Z,68.09
2023-01-29T07:46:52.873Z,67.91
2023-01-29T07:49:20.956Z,67.94
2023-01-29T07:51:49.203Z,68.36
2023-01-29T07:54:18.614Z,67.53
2023-01-29T07:56:46.862Z,67.54
2023-01-29T07:59:14.932Z,67.19
2023-01-29T08:01:43.141Z,67.43
2023-01-29T08:04:11.279Z,67.58
2023-01-29T08:06:39.572Z,67.45
2023-01-29T08:09:08.551Z,67.74
2023-01-29T08:11:38.138Z,67.90
2023-01-29T08:14:06.071Z,68.18
2023-01-29T08:16:34.381Z,68.28
2023-01-29T08:19:02.820Z,68.72
2023-01-29T08:21:31.209Z,70.08
2023-01-29T08:26:32.434Z,70.39
2023-01-29T08:29:01.935Z,68.86
2023-01-29T08:31:30.323Z,68.51
2023-01-29T08:33:58.800Z,70.66
2023-01-29T08:36:27.040Z,67.22
2023-01-29T08:38:54.987Z,67.53
2023-01-29T08:41:23.243Z,66.70
2023-01-29T08:43:51.251Z,67.32
2023-01-29T08:46:20.949Z,67.05
2023-01-29T08:48:49.155Z,64.68
2023-01-29T08:51:17.447Z,65.63
2023-01-29T08:53:45.452Z,65.26
2023-01-29T08:56:13.763Z,65.85
2023-01-29T08:58:41.704Z,65.48
2023-01-29T09:01:11.207Z,63.75
2023-01-29T09:03:41.091Z,64.88
2023-01-29T09:06:10.672Z,64.53
2023-01-29T09:08:38.766Z,65.00
2023-01-29T09:11:07.353Z,64.08
2023-01-29T09:13:35.462Z,64.96
2023-01-29T09:16:04.931Z,64.25
2023-01-29T09:18:33.639Z,64.22
2023-01-29T09:21:03.517Z,63.03
2023-01-29T09:23:32.086Z,63.51
2023-01-29T09:26:00.231Z,63.76
2023-01-29T09:28:28.503Z,63.15
2023-01-29T09:30:56.561Z,63.43
2023-01-29T09:33:26.082Z,63.56
2023-01-29T09:35:54.075Z,62.98
2023-01-29T09:38:23.701Z,63.54
2023-01-29T09:40:59.290Z,62.81
2023-01-29T09:43:35.306Z,61.52
2023-01-29T09:46:07.261Z,60.86
2023-01-29T09:48:36.616Z,61.30
2023-01-29T09:51:08.045Z,60.64
2023-01-29T09:53:40.520Z,61.04
2023-01-29T09:56:13.296Z,60.67
2023-01-29T09:58:43.110Z,60.26
2023-01-29T10:01:18.004Z,61.09
2023-01-29T10:04:19.145Z,59.98
2023-01-29T10:06:56.558Z,59.36
2023-01-29T10:09:56.576Z,59.32
2023-01-29T10:12:39.670Z,59.12
2023-01-29T10:15:18.411Z,58.99
2023-01-29T10:17:57.606Z,59.00
2023-01-29T10:20:44.678Z,60.96
2023-01-29T10:23:19.737Z,61.54
2023-01-29T10:25:49.740Z,60.15
2023-01-29T10:28:19.905Z,58.72
2023-01-29T10:30:50.640Z,57.50
2023-01-29T10:33:26.033Z,58.22
2023-01-29T10:35:57.310Z,58.39
2023-01-29T10:38:38.547Z,58.36
2023-01-29T10:41:20.724Z,57.56
2023-01-29T10:43:59.322Z,58.47
2023-01-29T10:46:39.496Z,58.63
2023-01-29T10:49:18.923Z,59.09
2023-01-29T10:52:04.614Z,59.19
2023-01-29T10:54:55.054Z,58.75
2023-01-29T10:57:37.282Z,59.28
2023-01-29T11:00:13.024Z,58.64
2023-01-29T11:02:45.840Z,57.86
2023-01-29T11:05:20.736Z,57.81
2023-01-29T11:07:49.729Z,57.83
2023-01-29T11:10:20.266Z,58.24
2023-01-29T11:12:50.914Z,58.29
2023-01-29T11:15:23.729Z,57.46
2023-01-29T11:18:13.923Z,56.77
2023-01-29T11:20:42.538Z,54.78
2023-01-29T11:23:27.132Z,55.89
2023-01-29T11:25:56.665Z,56.16
2023-01-29T11:28:40.358Z,56.00
2023-01-29T11:31:17.668Z,53.93
2023-01-29T11:33:46.657Z,53.89
2023-01-29T11:36:33.552Z,53.89
2023-01-29T11:39:11.993Z,54.10
2023-01-29T11:41:49.459Z,53.40
2023-01-29T11:44:25.302Z,52.63
2023-01-29T11:46:53.349Z,52.70
2023-01-29T11:49:26.620Z,52.25
2023-01-29T11:51:56.425Z,51.88
2023-01-29T11:54:26.829Z,51.64
2023-01-29T11:56:54.940Z,51.92
2023-01-29T11:59:31.313Z,50.62
2023-01-29T12:02:13.803Z,51.00
2023-01-29T12:04:42.168Z,47.64
2023-01-29T12:07:14.559Z,48.29
2023-01-29T12:09:43.269Z,48.23
2023-01-29T12:12:19.583Z,48.92
2023-01-29T12:15:04.164Z,45.69
2023-01-29T12:17:34.621Z,46.76
2023-01-29T12:20:06.069Z,47.61
2023-01-29T12:22:41.421Z,48.22
2023-01-29T12:25:17.627Z,45.76
2023-01-29T12:27:49.435Z,43.71
2023-01-29T12:30:23.366Z,43.44
2023-01-29T12:32:55.484Z,40.92
2023-01-29T12:35:26.913Z,43.54
2023-01-29T12:37:58.200Z,40.15
2023-01-29T12:40:28.704Z,42.55
2023-01-29T12:43:01.560Z,40.46
2023-01-29T12:45:32.565Z,38.66
2023-01-29T12:48:03.298Z,37.69
2023-01-29T12:50:34.664Z,36.54
2023-01-29T12:53:06.292Z,36.92
2023-01-29T12:55:39.265Z,35.23
2023-01-29T12:58:14.109Z,35.26
2023-01-29T13:00:45.050Z,36.54
2023-01-29T13:03:20.745Z,35.23
2023-01-29T13:05:51.715Z,38.69
2023-01-29T13:08:22.850Z,39.16
2023-01-29T13:10:52.947Z,38.99
2023-01-29T13:13:27.753Z,39.22
2023-01-29T13:15:59.983Z,41.14
2023-01-29T13:18:37.641Z,40.44
2023-01-29T13:21:06.646Z,40.17
2023-01-29T13:23:38.229Z,39.23
2023-01-29T13:26:06.948Z,41.89
2023-01-29T13:28:35.225Z,41.41
2023-01-29T13:31:19.877Z,41.77
2023-01-29T13:33:54.281Z,39.51
2023-01-29T13:36:26.919Z,39.61
2023-01-29T13:38:58.824Z,41.47
2023-01-29T13:41:34.144Z,42.42
2023-01-29T13:44:02.318Z,42.13
2023-01-29T13:46:33.332Z,41.16
2023-01-29T13:49:04.844Z,40.80
2023-01-29T13:51:37.214Z,41.86
2023-01-29T13:54:08.684Z,39.62
2023-01-29T13:56:48.983Z,41.86
2023-01-29T13:59:25.108Z,42.73
2023-01-29T14:02:23.266Z,41.21
2023-01-29T14:04:52.332Z,41.28
2023-01-29T14:07:40.278Z,40.77
2023-01-29T14:10:17.291Z,41.92
2023-01-29T14:12:47.153Z,41.69
2023-01-29T14:15:23.686Z,42.51
2023-01-29T14:18:22.494Z,44.38
2023-01-29T14:21:02.268Z,46.88
2023-01-29T14:23:42.294Z,46.99
2023-01-29T14:26:27.047Z,47.20
2023-01-29T14:29:00.162Z,46.18
2023-01-29T14:31:30.752Z,45.45
2023-01-29T14:34:03.289Z,45.00
2023-01-29T14:36:39.840Z,44.52
2023-01-29T14:39:08.623Z,43.72
2023-01-29T14:41:37.373Z,42.59
2023-01-29T14:44:42.803Z,43.43
2023-01-29T14:47:19.231Z,41.71
2023-01-29T14:49:54.123Z,40.51
2023-01-29T14:52:25.555Z,38.09
2023-01-29T14:54:54.250Z,38.09
2023-01-29T14:57:22.980Z,38.27
2023-01-29T14:59:56.216Z,38.96
2023-01-29T15:02:27.593Z,37.27
2023-01-29T15:04:59.400Z,37.80
2023-01-29T15:07:31.759Z,38.78
2023-01-29T15:10:21.980Z,40.86
2023-01-29T15:12:53.942Z,39.89
2023-01-29T15:15:28.717Z,41.08
2023-01-29T15:17:59.947Z,39.91
2023-01-29T15:20:31.938Z,40.88
2023-01-29T15:23:00.568Z,42.94
2023-01-29T15:25:33.752Z,44.58
2023-01-29T15:28:02.153Z,43.65
2023-01-29T15:30:34.037Z,43.72
2023-01-29T15:33:02.761Z,43.67
2023-01-29T15:35:35.834Z,44.02
2023-01-29T15:38:05.970Z,43.49
2023-01-29T15:40:35.091Z,43.06
2023-01-29T15:43:03.073Z,42.92
2023-01-29T15:45:32.909Z,43.12
2023-01-29T15:48:04.933Z,43.23
2023-01-29T15:50:37.945Z,43.69
2023-01-29T15:53:10.802Z,43.73
2023-01-29T15:55:40.263Z,43.89
2023-01-29T15:58:14.726Z,45.09
2023-01-29T16:00:49.833Z,46.34
2023-01-29T16:03:20.575Z,47.41
2023-01-29T16:05:50.722Z,48.04
2023-01-29T16:08:19.667Z,48.78
2023-01-29T16:10:50.675Z,51.42
2023-01-29T16:13:22.324Z,51.58
2023-01-29T16:15:58.334Z,51.65
2023-01-29T16:18:30.934Z,51.17
2023-01-29T16:21:05.391Z,51.29
2023-01-29T16:23:42.851Z,51.84
2023-01-29T16:26:16.901Z,51.91
2023-01-29T16:28:45.738Z,52.42
2023-01-29T16:31:15.454Z,53.42
2023-01-29T16:33:45.321Z,53.49
2023-01-29T16:36:18.483Z,53.56
2023-01-29T16:38:48.873Z,54.25
2023-01-29T16:41:31.291Z,54.75
2023-01-29T16:44:00.172Z,55.50
2023-01-29T16:46:34.313Z,55.11
2023-01-29T16:49:02.894Z,55.68
2023-01-29T16:51:38.052Z,56.63
2023-01-29T16:54:10.830Z,56.66
2023-01-29T16:56:39.576Z,56.67
2023-01-29T16:59:07.648Z,57.34
2023-01-29T17:01:37.544Z,57.74
2023-01-29T17:04:09.907Z,57.40
2023-01-29T17:06:40.852Z,57.93
2023-01-29T17:09:09.578Z,57.88
2023-01-29T17:11:39.842Z,59.04
2023-01-29T17:14:11.332Z,58.63
2023-01-29T17:16:50.317Z,58.47
2023-01-29T17:19:22.398Z,58.74
2023-01-29T17:21:52.052Z,58.48
2023-01-29T17:24:20.236Z,58.95
2023-01-29T17:26:48.960Z,59.35
2023-01-29T17:29:20.199Z,59.38
2023-01-29T17:31:48.469Z,59.90
2023-01-29T17:34:18.531Z,60.06
2023-01-29T17:36:47.077Z,60.35
2023-01-29T17:39:19.324Z,60.72
2023-01-29T17:41:51.508Z,60.43
2023-01-29T17:44:23.297Z,60.65
2023-01-29T17:46:51.526Z,60.48
2023-01-29T17:49:24.262Z,60.32
2023-01-29T17:51:52.881Z,60.49
2023-01-29T17:54:23.270Z,61.43
2023-01-29T17:56:52.368Z,61.66
2023-01-29T17:59:21.783Z,61.73
2023-01-29T18:01:50.761Z,61.99
2023-01-29T18:04:19.251Z,61.56
2023-01-29T18:06:49.169Z,62.31
2023-01-29T18:09:18.749Z,62.63
2023-01-29T18:11:49.160Z,62.91
2023-01-29T18:14:17.455Z,63.09
2023-01-29T18:16:46.479Z,63.75
2023-01-29T18:19:17.578Z,64.00
2023-01-29T18:21:45.891Z,63.86
2023-01-29T18:24:13.907Z,63.59
2023-01-29T18:26:42.612Z,64.26
2023-01-29T18:29:12.063Z,64.03
2023-01-29T18:31:40.541Z,65.62
2023-01-29T18:34:08.587Z,65.80
2023-01-29T18:36:36.912Z,66.65
2023-01-29T18:39:05.103Z,67.26
2023-01-29T18:41:33.315Z,67.65
2023-01-29T18:44:01.328Z,68.47
2023-01-29T18:46:30.977Z,68.30
2023-01-29T18:48:59.014Z,68.07
2023-01-29T18:51:27.362Z,68.57
2023-01-29T18:53:55.485Z,68.19
2023-01-29T18:56:24.816Z,68.17
2023-01-29T18:58:55.775Z,69.42
2023-01-29T19:01:24.647Z,69.08
2023-01-29T19:03:54.087Z,69.13
2023-01-29T19:06:22.613Z,69.19
2023-01-29T19:08:50.642Z,68.67
2023-01-29T19:11:18.933Z,69.53
2023-01-29T19:13:47.960Z,68.50
2023-01-29T19:16:16.287Z,68.58
2023-01-29T19:18:44.525Z,68.33
2023-01-29T19:21:15.755Z,68.89
2023-01-29T19:23:44.749Z,69.58
2023-01-29T19:26:13.337Z,70.66
2023-01-29T19:28:41.746Z,71.35
2023-01-29T19:31:10.827Z,71.56
2023-01-29T19:33:39.871Z,72.29
2023-01-29T19:36:08.857Z,72.83
2023-01-29T19:38:38.856Z,73.03
2023-01-29T19:41:07.288Z,73.31
2023-01-29T19:43:35.355Z,73.18
2023-01-29T19:46:03.783Z,73.17
2023-01-29T19:48:31.794Z,73.06
2023-01-29T19:51:01.461Z,72.38
2023-01-29T19:53:30.010Z,71.48
2023-01-29T19:56:00.493Z,71.84
2023-01-29T19:58:29.172Z,71.85
2023-01-29T20:00:58.124Z,71.56
2023-01-29T20:03:26.889Z,72.05
2023-01-29T20:05:55.187Z,72.76
2023-01-29T20:08:23.825Z,72.86
2023-01-29T20:10:52.179Z,73.41
2023-01-29T20:13:21.570Z,73.65
2023-01-29T20:15:51.836Z,73.84
2023-01-29T20:18:20.202Z,73.96
2023-01-29T20:20:49.870Z,74.57
2023-01-29T20:23:35.287Z,74.75
2023-01-29T20:26:05.977Z,75.10
2023-01-29T20:28:35.671Z,75.11
2023-01-29T20:31:04.961Z,74.88
2023-01-29T20:33:33.640Z,74.89
2023-01-29T20:36:03.355Z,73.91
2023-01-29T20:38:31.895Z,74.35
2023-01-29T20:41:04.859Z,73.96
2023-01-29T20:43:33.162Z,73.82
2023-01-29T20:46:03.734Z,73.24
2023-01-29T20:48:31.971Z,72.94
2023-01-29T20:51:05.606Z,72.68
2023-01-29T20:53:33.671Z,72.37
2023-01-29T20:56:04.211Z,72.11
2023-01-29T20:58:32.573Z,72.32
2023-01-29T21:01:02.559Z,72.28
2023-01-29T21:03:30.759Z,72.29
2023-01-29T21:05:59.841Z,72.09
2023-01-29T21:08:27.974Z,71.94
2023-01-29T21:10:56.208Z,72.41
2023-01-29T21:13:24.166Z,72.17
2023-01-29T21:15:52.408Z,71.88
2023-01-29T21:18:21.815Z,71.53
2023-01-29T21:20:50.686Z,72.65
2023-01-29T21:23:18.759Z,72.39
2023-01-29T21:25:48.030Z,72.60
2023-01-29T21:28:17.239Z,72.64
2023-01-29T21:30:46.304Z,72.79
2023-01-29T21:33:14.301Z,72.80
2023-01-29T21:35:43.936Z,73.03
2023-01-29T21:38:12.094Z,74.01
2023-01-29T21:40:40.328Z,74.78
2023-01-29T21:43:11.772Z,75.33
2023-01-29T21:45:40.580Z,75.63
2023-01-29T21:48:09.119Z,76.22
2023-01-29T21:50:37.955Z,77.15
2023-01-29T21:53:07.437Z,77.36
2023-01-29T21:55:35.667Z,77.46
2023-01-29T21:58:04.288Z,78.04
2023-01-29T22:00:32.933Z,78.42
2023-01-29T22:03:01.002Z,78.97
2023-01-29T22:05:30.071Z,79.56
2023-01-29T22:07:58.080Z,80.13
2023-01-29T22:10:28.550Z,80.40
2023-01-29T22:12:56.760Z,80.06
2023-01-29T22:15:24.957Z,80.46
2023-01-29T22:17:52.977Z,80.79
2023-01-29T22:20:29.366Z,81.21
2023-01-29T22:22:59.265Z,80.99
2023-01-29T22:25:29.097Z,81.02
2023-01-29T22:27:57.103Z,81.59
2023-01-29T22:30:25.615Z,81.89
2023-01-29T22:32:53.660Z,82.27
2023-01-29T22:35:21.918Z,82.25
2023-01-29T22:37:49.894Z,82.19
2023-01-29T22:40:18.887Z,82.10
2023-01-29T22:42:48.269Z,82.06
2023-01-29T22:45:16.940Z,81.89
2023-01-29T22:47:44.929Z,81.53
2023-01-29T22:50:13.724Z,80.81
2023-01-29T22:52:42.647Z,80.54
2023-01-29T22:55:12.703Z,80.59
2023-01-29T22:57:41.080Z,80.73
2023-01-29T23:00:12.231Z,80.81
2023-01-29T23:02:40.214Z,80.79
2023-01-29T23:05:09.226Z,80.98
2023-01-29T23:07:37.239Z,81.06
2023-01-29T23:10:07.150Z,80.58
2023-01-29T23:12:35.310Z,80.92
2023-01-29T23:15:03.550Z,81.01
2023-01-29T23:17:33.009Z,81.32
2023-01-29T23:20:01.216Z,81.27
2023-01-29T23:22:29.192Z,81.12
2023-01-29T23:24:57.431Z,81.29
2023-01-29T23:27:24.552Z,80.90
2023-01-29T23:29:52.817Z,81.23
2023-01-29T23:32:21.940Z,81.51
2023-01-29T23:34:51.532Z,81.14
2023-01-29T23:37:19.520Z,80.78
2023-01-29T23:39:47.730Z,81.32
2023-01-29T23:42:15.745Z,81.31
2023-01-29T23:44:43.976Z,81.89
2023-01-29T23:47:11.919Z,82.29
2023-01-29T23:49:40.171Z,82.29
2023-01-29T23:52:09.466Z,82.30
2023-01-29T23:54:37.659Z,81.97
2023-01-29T23:57:05.644Z,82.31
2023-01-29T23:59:33.994Z,82.26
